ウィーン の空港の天気 - METARとTAF

ウィーン国際空港 ( LOWW / VIE ) - オーストリア ウィーン
飛行場実況気象(Metar)
観測時間08/13 11:50 CEST (08/13 09:50 UTC)
風向・風速北西 5m/s
視程10km以上
天気現象
なし
気温26℃
湿度48%
気圧1014hPa
METARLOWW 130950Z 32010KT 290V350 CAVOK 26/14 Q1014 NOSIG
過去の天気等 Google飛行場航空写真 Wunderground天気予報

過去48時間のMETAR

飛行場予報(TAF)
発表時間: 8/13 10:15 CEST (8/13 08:15 UTC)
予報対象時間: 13日11時 CEST ~ 14日17時 CEST
風向・風速北北西 5m/s
視程10km以上
なし
13日16時 CEST ~ 13日20時 CEST に 確率 30% で一時的に
天気現象弱いしゅう雨
全天の8割程度の雲 雲底高度 910m
少しの積乱雲 雲底高度 1520m
14日12時 CEST ~ 14日17時 CEST に一時的に
天気現象弱いしゅう雨
14日12時 CEST ~ 14日17時 CEST に 確率 40% で一時的に
天気現象しゅう雨
全天の8割程度の雲 雲底高度 910m
少しの積乱雲 雲底高度 1520m
TAF LOWW 130815Z 1309/1415 34010KT CAVOK TX26/1313Z TN18/1405Z
PROB30 TEMPO 1314/1318 -SHRA BKN030 FEW050CB
TEMPO 1410/1415 -SHRA
PROB40 TEMPO 1410/1415 SHRA BKN030 FEW050CB